Time;durP1;ratioP1;P1;durP2;ratioP2;P2;SDS_P1;SDS_P2;PMS_P1;PMS_P2;Temp;Humidity;BMP_temperature;BMP_pressure;BME280_temperature;BME280_humidity;BME280_pressure;Samples;Min_cycle;Max_cycle;Signal;HPM_P1;HPM_P2
2022/07/27 00:00:29;;;;;;;55.65;5.72;;;26.10;58.20;;;;;;5025165;28;20014;-60
2022/07/27 00:02:55;;;;;;;74.45;8.52;;;26.00;58.10;;;;;;5026141;28;20045;-60
2022/07/27 00:05:21;;;;;;;21.70;4.40;;;26.00;58.10;;;;;;5024778;28;20025;-61
2022/07/27 00:07:47;;;;;;;11.32;2.92;;;25.90;58.10;;;;;;5023582;28;20040;-60
2022/07/27 00:10:12;;;;;;;18.10;3.75;;;26.00;58.40;;;;;;5023963;28;20116;-60
2022/07/27 00:12:38;;;;;;;18.48;3.00;;;25.90;58.30;;;;;;5024702;28;20108;-60
2022/07/27 00:15:04;;;;;;;13.20;3.22;;;25.90;58.40;;;;;;5025299;28;20033;-60
2022/07/27 00:17:30;;;;;;;23.27;3.17;;;25.90;58.40;;;;;;5023279;28;20049;-60
2022/07/27 00:19:55;;;;;;;19.95;3.47;;;25.80;58.20;;;;;;5025700;28;20076;-60
2022/07/27 00:22:21;;;;;;;14.77;3.03;;;25.90;58.30;;;;;;5026060;28;20037;-60
2022/07/27 00:24:47;;;;;;;15.88;3.05;;;25.80;58.30;;;;;;5026590;28;20026;-60
2022/07/27 00:27:13;;;;;;;16.02;2.65;;;25.80;58.50;;;;;;5026577;28;20036;-60
2022/07/27 00:29:38;;;;;;;16.05;3.05;;;25.70;58.20;;;;;;5026540;28;20029;-60
2022/07/27 00:32:04;;;;;;;22.83;2.85;;;25.70;58.30;;;;;;5025029;28;20109;-60
2022/07/27 00:34:29;;;;;;;13.65;2.78;;;25.70;58.30;;;;;;5025909;28;20049;-60
2022/07/27 00:36:55;;;;;;;21.88;2.90;;;25.70;58.30;;;;;;5025285;28;20279;-60
2022/07/27 00:39:20;;;;;;;18.75;2.67;;;25.70;58.50;;;;;;5027035;28;20454;-60
2022/07/27 00:41:46;;;;;;;10.13;2.88;;;25.60;58.60;;;;;;5025104;28;20035;-60
2022/07/27 00:44:11;;;;;;;8.38;2.47;;;25.60;58.50;;;;;;5025164;28;20044;-60
2022/07/27 00:46:37;;;;;;;12.68;2.30;;;25.60;58.50;;;;;;5025164;28;20030;-60
2022/07/27 00:49:03;;;;;;;11.93;2.75;;;25.60;58.80;;;;;;5025891;28;20025;-60
2022/07/27 00:51:29;;;;;;;13.82;2.25;;;25.50;58.60;;;;;;5026474;28;20029;-60
2022/07/27 00:53:54;;;;;;;13.13;2.45;;;25.60;58.90;;;;;;5008548;28;20144;-60
2022/07/27 00:56:20;;;;;;;10.85;2.45;;;25.50;58.60;;;;;;5025427;28;20037;-60
2022/07/27 00:58:48;;;;;;;7.85;2.13;;;25.50;58.90;;;;;;5023623;28;20029;-60
2022/07/27 01:01:14;;;;;;;10.35;2.25;;;25.50;58.90;;;;;;5023012;28;20067;-61
2022/07/27 01:03:40;;;;;;;9.02;2.08;;;25.40;58.90;;;;;;5023887;28;20025;-60
2022/07/27 01:06:05;;;;;;;9.98;2.55;;;25.40;59.00;;;;;;5024852;28;20425;-60
2022/07/27 01:08:31;;;;;;;11.10;2.20;;;25.40;59.10;;;;;;5022130;28;20029;-60
2022/07/27 01:10:56;;;;;;;9.27;2.10;;;25.40;58.90;;;;;;5024947;28;20207;-60
2022/07/27 01:13:24;;;;;;;9.88;2.08;;;25.40;58.80;;;;;;5007008;28;20036;-60
2022/07/27 01:15:49;;;;;;;7.18;2.03;;;25.40;58.80;;;;;;5023791;28;20373;-60
2022/07/27 01:18:32;;;;;;;10.60;2.10;;;25.30;58.80;;;;;;5023905;28;20053;-60
2022/07/27 01:20:58;;;;;;;7.72;2.13;;;25.30;58.90;;;;;;5006719;28;20049;-60
2022/07/27 01:23:24;;;;;;;14.70;2.47;;;25.30;59.00;;;;;;5025332;28;20719;-60
2022/07/27 01:25:50;;;;;;;7.40;2.15;;;25.30;58.90;;;;;;5006782;28;20044;-61
2022/07/27 01:28:15;;;;;;;6.57;1.88;;;25.20;59.00;;;;;;5022519;28;20731;-60
2022/07/27 01:30:41;;;;;;;9.05;2.22;;;25.20;59.00;;;;;;5025793;28;20038;-60
2022/07/27 01:33:07;;;;;;;6.47;1.60;;;25.20;59.00;;;;;;5023935;28;20040;-60
2022/07/27 01:35:33;;;;;;;4.45;1.55;;;25.20;59.10;;;;;;5024675;28;20472;-61
2022/07/27 01:37:58;;;;;;;2.85;1.40;;;25.20;59.00;;;;;;5023394;28;20053;-60
2022/07/27 01:40:24;;;;;;;4.85;1.80;;;25.20;59.20;;;;;;5023546;28;20163;-60
2022/07/27 01:42:49;;;;;;;6.65;1.75;;;25.10;59.00;;;;;;5024004;28;20461;-60
2022/07/27 01:45:15;;;;;;;7.57;1.80;;;25.10;59.10;;;;;;5026203;28;20477;-60
2022/07/27 01:47:40;;;;;;;5.05;1.65;;;25.00;59.10;;;;;;5022830;28;20437;-60
2022/07/27 01:50:06;;;;;;;7.53;1.30;;;25.00;59.20;;;;;;5024774;28;20046;-60
2022/07/27 01:52:32;;;;;;;4.88;1.80;;;25.10;59.20;;;;;;5024410;28;20013;-60
2022/07/27 01:54:57;;;;;;;7.43;1.52;;;25.10;59.20;;;;;;5023894;28;20496;-60
2022/07/27 01:57:23;;;;;;;9.88;1.77;;;25.00;59.10;;;;;;5007709;28;20535;-60
2022/07/27 01:59:48;;;;;;;7.70;1.92;;;24.90;59.10;;;;;;5024693;28;20053;-60
2022/07/27 02:02:15;;;;;;;6.78;1.52;;;24.90;59.20;;;;;;5022645;28;20029;-60
2022/07/27 02:04:41;;;;;;;4.18;1.70;;;24.90;59.10;;;;;;5024528;28;20021;-61
2022/07/27 02:07:07;;;;;;;5.25;1.77;;;24.90;59.20;;;;;;5023892;28;20033;-63
2022/07/27 02:09:32;;;;;;;2.72;1.30;;;24.90;59.30;;;;;;5006995;28;20030;-60
2022/07/27 02:14:42;;;;;;;3.08;1.48;;;24.80;59.20;;;;;;5022889;28;20031;-62
2022/07/27 02:17:07;;;;;;;4.57;1.27;;;24.80;59.30;;;;;;5020504;28;20054;-60
2022/07/27 02:19:33;;;;;;;4.07;1.50;;;24.80;59.40;;;;;;5023423;28;20277;-60
2022/07/27 02:21:58;;;;;;;7.53;1.63;;;24.80;59.40;;;;;;5024082;28;20034;-60
2022/07/27 02:24:24;;;;;;;3.38;1.35;;;24.70;59.40;;;;;;5025054;28;20481;-60
2022/07/27 02:26:49;;;;;;;5.70;1.17;;;24.70;59.50;;;;;;5022113;28;20473;-61
2022/07/27 02:29:15;;;;;;;4.40;1.30;;;24.60;59.50;;;;;;5021662;28;20038;-60
2022/07/27 02:31:40;;;;;;;2.55;1.27;;;24.70;59.60;;;;;;5023208;28;20025;-60
2022/07/27 02:34:06;;;;;;;3.63;1.02;;;24.60;59.60;;;;;;5022696;28;20102;-60
2022/07/27 02:36:31;;;;;;;3.75;1.40;;;24.60;59.70;;;;;;5024384;28;20088;-60
2022/07/27 02:38:57;;;;;;;2.40;0.95;;;24.60;59.70;;;;;;5023576;28;20298;-60
2022/07/27 02:41:22;;;;;;;2.90;1.05;;;24.60;59.80;;;;;;5021970;28;20064;-61
2022/07/27 02:43:48;;;;;;;3.10;1.35;;;24.50;59.80;;;;;;5004800;28;20113;-61
2022/07/27 02:46:13;;;;;;;3.63;1.23;;;24.50;59.80;;;;;;5019635;28;20038;-60
2022/07/27 02:48:39;;;;;;;3.15;1.42;;;24.50;59.80;;;;;;5024266;28;20029;-61
2022/07/27 02:51:04;;;;;;;3.90;1.30;;;24.50;59.90;;;;;;5024425;28;20017;-61
2022/07/27 02:53:30;;;;;;;2.65;1.20;;;24.50;59.90;;;;;;5022954;28;20029;-60
2022/07/27 02:55:56;;;;;;;4.43;1.50;;;24.50;59.90;;;;;;5021431;28;20159;-61
2022/07/27 02:58:21;;;;;;;3.78;1.30;;;24.40;60.00;;;;;;5021619;28;20021;-61
2022/07/27 03:00:47;;;;;;;3.55;1.00;;;24.40;60.00;;;;;;5005905;28;20540;-61
2022/07/27 03:03:12;;;;;;;2.85;1.20;;;24.40;60.10;;;;;;5024038;28;20539;-61
2022/07/27 03:05:38;;;;;;;3.53;0.82;;;24.40;60.10;;;;;;5021026;28;20235;-58
2022/07/27 03:08:04;;;;;;;2.95;1.20;;;24.40;60.10;;;;;;5021032;28;20049;-60
2022/07/27 03:10:29;;;;;;;3.75;1.38;;;24.40;60.10;;;;;;5022706;28;20033;-58
2022/07/27 03:12:55;;;;;;;4.18;1.30;;;24.30;60.20;;;;;;5021978;28;20789;-58
2022/07/27 03:15:21;;;;;;;2.88;1.08;;;24.30;60.00;;;;;;5024231;28;20080;-60
2022/07/27 03:17:46;;;;;;;5.35;1.10;;;24.30;60.10;;;;;;5023307;28;20124;-61
2022/07/27 03:20:12;;;;;;;3.25;1.00;;;24.30;60.20;;;;;;5022798;28;20560;-60
2022/07/27 03:22:37;;;;;;;2.50;0.88;;;24.30;60.30;;;;;;5023555;28;20544;-60
2022/07/27 03:25:03;;;;;;;3.80;1.10;;;24.20;60.30;;;;;;5005045;28;20658;-60
2022/07/27 03:27:29;;;;;;;2.83;1.20;;;24.20;60.40;;;;;;5023324;28;20405;-61
2022/07/27 03:29:55;;;;;;;2.13;1.00;;;24.20;60.50;;;;;;5024059;28;20030;-60
2022/07/27 03:32:20;;;;;;;1.80;0.80;;;24.10;60.40;;;;;;5024707;28;20048;-60
2022/07/27 03:34:46;;;;;;;2.67;1.00;;;24.10;60.40;;;;;;5025938;28;20496;-61
2022/07/27 03:37:11;;;;;;;3.97;1.40;;;24.10;60.50;;;;;;5026749;28;20041;-60
2022/07/27 03:39:37;;;;;;;3.33;0.88;;;24.10;60.70;;;;;;5026667;28;20026;-61
2022/07/27 03:42:02;;;;;;;1.92;1.05;;;24.10;60.60;;;;;;5025787;28;20037;-61
2022/07/27 03:44:28;;;;;;;2.05;1.10;;;24.10;60.70;;;;;;5026745;28;20030;-60
2022/07/27 03:46:53;;;;;;;2.53;0.95;;;24.10;60.70;;;;;;5026252;28;20037;-61
2022/07/27 03:49:19;;;;;;;1.95;1.00;;;24.00;60.70;;;;;;5026815;28;20021;-61
2022/07/27 03:51:44;;;;;;;1.85;1.10;;;24.00;60.70;;;;;;5027634;28;20014;-61
2022/07/27 03:54:10;;;;;;;2.72;1.20;;;24.00;60.80;;;;;;5027567;28;20470;-61
2022/07/27 03:56:36;;;;;;;3.05;1.10;;;24.00;60.80;;;;;;5025828;28;20045;-61
2022/07/27 03:59:01;;;;;;;3.00;1.08;;;24.00;60.80;;;;;;5026047;28;20021;-61
2022/07/27 04:01:26;;;;;;;3.67;1.00;;;24.00;61.00;;;;;;5027390;28;20038;-61
2022/07/27 04:03:52;;;;;;;3.70;1.00;;;23.90;61.00;;;;;;5008389;28;20477;-60
2022/07/27 04:06:18;;;;;;;2.22;0.90;;;23.90;61.00;;;;;;5023648;28;20172;-61
2022/07/27 04:08:43;;;;;;;2.22;1.27;;;23.90;61.10;;;;;;5026264;28;20481;-61
2022/07/27 04:11:09;;;;;;;1.33;0.90;;;23.90;61.20;;;;;;5024379;28;20048;-61
2022/07/27 04:13:34;;;;;;;2.50;1.02;;;23.90;61.20;;;;;;5025030;28;20401;-60
2022/07/27 04:16:00;;;;;;;1.38;0.90;;;23.90;61.30;;;;;;5024647;28;20068;-61
2022/07/27 04:18:25;;;;;;;1.83;0.98;;;23.90;61.30;;;;;;5026464;28;20053;-60
2022/07/27 04:20:51;;;;;;;3.55;1.13;;;23.90;61.30;;;;;;5026006;28;20044;-60
2022/07/27 04:23:16;;;;;;;2.35;1.13;;;23.90;61.30;;;;;;5027033;28;20028;-60
2022/07/27 04:25:42;;;;;;;2.10;1.08;;;23.80;61.40;;;;;;5024501;28;20052;-61
2022/07/27 04:28:07;;;;;;;2.13;1.00;;;23.80;61.50;;;;;;5026196;28;20079;-60
2022/07/27 04:30:33;;;;;;;1.95;0.95;;;23.80;61.60;;;;;;5025898;28;20107;-61
2022/07/27 04:32:58;;;;;;;2.25;0.90;;;23.80;61.60;;;;;;5027707;28;20108;-61
2022/07/27 04:35:24;;;;;;;2.08;1.20;;;23.70;61.60;;;;;;5025579;28;20044;-60
2022/07/27 04:37:50;;;;;;;1.60;1.08;;;23.70;61.70;;;;;;5024429;28;20069;-58
2022/07/27 04:40:15;;;;;;;2.45;1.20;;;23.70;61.70;;;;;;5025967;28;20052;-61
2022/07/27 04:42:41;;;;;;;1.80;1.00;;;23.70;61.80;;;;;;5007020;28;20040;-60
2022/07/27 04:45:06;;;;;;;2.10;1.00;;;23.70;61.80;;;;;;5009193;28;20037;-61
2022/07/27 04:47:32;;;;;;;2.95;1.17;;;23.70;61.90;;;;;;5027088;28;20042;-61
2022/07/27 04:49:57;;;;;;;1.90;1.17;;;23.70;61.80;;;;;;5025664;28;20025;-61
2022/07/27 04:52:23;;;;;;;2.75;1.15;;;23.70;61.70;;;;;;5025925;28;20045;-60
2022/07/27 04:54:52;;;;;;;4.60;1.35;;;23.70;61.80;;;;;;5025557;28;20034;-61
2022/07/27 04:57:18;;;;;;;3.53;1.40;;;23.60;61.80;;;;;;5025158;28;20025;-61
2022/07/27 04:59:43;;;;;;;3.38;1.17;;;23.60;61.80;;;;;;5025812;28;20053;-61
2022/07/27 05:02:09;;;;;;;1.95;1.13;;;23.60;62.00;;;;;;5026408;28;20133;-60
2022/07/27 05:04:34;;;;;;;1.75;0.95;;;23.60;61.90;;;;;;5023898;28;20043;-61
2022/07/27 05:07:00;;;;;;;1.42;0.95;;;23.60;61.90;;;;;;5023003;28;20123;-60
2022/07/27 05:09:25;;;;;;;5.65;1.35;;;23.60;61.90;;;;;;5025853;28;20595;-60
2022/07/27 05:11:51;;;;;;;1.70;1.13;;;23.60;62.60;;;;;;5024741;28;20044;-61
2022/07/27 05:14:16;;;;;;;3.28;1.13;;;23.60;61.90;;;;;;5020444;28;20045;-61
2022/07/27 05:16:42;;;;;;;2.40;1.05;;;23.60;61.90;;;;;;5016687;28;20634;-60
2022/07/27 05:19:07;;;;;;;1.92;1.00;;;23.60;62.00;;;;;;5019312;28;20116;-60
2022/07/27 05:21:33;;;;;;;2.88;1.20;;;23.60;61.90;;;;;;5016298;28;20421;-61
2022/07/27 05:23:59;;;;;;;3.30;1.33;;;23.60;61.90;;;;;;5019536;28;20055;-61
2022/07/27 05:26:25;;;;;;;4.07;1.30;;;23.60;61.90;;;;;;5018785;28;20029;-61
2022/07/27 05:28:50;;;;;;;1.67;1.02;;;23.60;61.90;;;;;;5002454;28;20615;-61
2022/07/27 05:31:17;;;;;;;1.58;1.00;;;23.60;61.80;;;;;;5017656;28;20053;-60
2022/07/27 05:33:43;;;;;;;2.42;1.02;;;23.60;61.90;;;;;;5018097;28;20057;-60
2022/07/27 05:36:08;;;;;;;3.30;1.10;;;23.60;61.90;;;;;;5017385;28;20053;-61
2022/07/27 05:38:38;;;;;;;2.90;1.10;;;23.60;61.90;;;;;;5011474;28;20041;-60
2022/07/27 05:41:06;;;;;;;1.63;1.08;;;23.60;61.90;;;;;;5014068;28;20056;-62
2022/07/27 05:43:32;;;;;;;5.05;1.20;;;23.60;61.80;;;;;;5016386;28;20029;-61
2022/07/27 05:45:57;;;;;;;2.30;1.10;;;23.60;61.80;;;;;;5011999;28;20057;-61
2022/07/27 05:48:23;;;;;;;1.67;0.95;;;23.60;61.80;;;;;;5014503;28;20030;-60
2022/07/27 05:50:48;;;;;;;3.03;1.23;;;23.60;61.80;;;;;;5013799;28;20279;-60
2022/07/27 05:53:14;;;;;;;2.92;1.10;;;23.70;61.80;;;;;;5018135;28;20065;-60
2022/07/27 05:55:39;;;;;;;1.75;1.13;;;23.70;61.80;;;;;;5015352;28;20082;-61
2022/07/27 05:58:05;;;;;;;2.55;1.00;;;23.70;61.80;;;;;;5016715;28;20632;-60
2022/07/27 06:00:30;;;;;;;2.65;0.75;;;23.70;61.80;;;;;;5015935;28;20537;-60
2022/07/27 06:02:56;;;;;;;4.60;1.30;;;23.70;61.90;;;;;;5014427;28;20029;-60
2022/07/27 06:05:21;;;;;;;4.55;1.45;;;23.70;62.00;;;;;;5012330;28;20083;-60
2022/07/27 06:07:59;;;;;;;3.63;1.42;;;23.60;62.00;;;;;;5012122;28;20087;-60
2022/07/27 06:10:28;;;;;;;2.58;1.35;;;23.60;62.20;;;;;;5014429;28;20202;-61
2022/07/27 06:12:54;;;;;;;4.88;1.52;;;23.50;62.60;;;;;;5016473;28;20052;-60
2022/07/27 06:15:19;;;;;;;1.83;1.10;;;23.50;62.90;;;;;;5017335;28;20450;-60
2022/07/27 06:17:45;;;;;;;3.80;1.27;;;23.40;63.70;;;;;;5014502;28;20519;-61
2022/07/27 06:20:11;;;;;;;3.78;1.50;;;23.40;63.20;;;;;;5019316;28;20045;-60
2022/07/27 06:22:48;;;;;;;5.88;1.60;;;23.40;63.50;;;;;;5016940;28;20530;-60
2022/07/27 06:25:14;;;;;;;3.78;1.42;;;23.30;63.60;;;;;;4999723;28;20029;-60
2022/07/27 06:27:40;;;;;;;8.88;1.85;;;23.30;63.80;;;;;;4998820;28;20409;-60
2022/07/27 06:30:06;;;;;;;4.75;2.00;;;23.30;63.90;;;;;;5018081;28;20730;-60
2022/07/27 06:32:32;;;;;;;5.40;2.00;;;23.20;64.00;;;;;;4997813;28;20111;-60
2022/07/27 06:34:59;;;;;;;10.93;2.30;;;23.20;64.20;;;;;;5017022;28;20132;-60
2022/07/27 06:37:26;;;;;;;5.70;1.67;;;23.20;64.30;;;;;;5018149;28;20047;-60
2022/07/27 06:39:51;;;;;;;5.90;2.08;;;23.10;64.40;;;;;;5016566;28;20021;-60
2022/07/27 06:42:17;;;;;;;3.72;1.63;;;23.10;64.60;;;;;;5016418;28;20029;-60
2022/07/27 06:44:42;;;;;;;6.43;1.83;;;23.10;64.60;;;;;;5014739;28;20292;-60
2022/07/27 06:47:08;;;;;;;5.45;1.25;;;23.00;64.70;;;;;;5016835;28;20461;-60
2022/07/27 06:49:33;;;;;;;4.30;1.60;;;23.00;64.70;;;;;;5012590;28;20041;-60
2022/07/27 06:51:59;;;;;;;6.03;1.63;;;23.00;64.60;;;;;;5013914;28;20080;-60
2022/07/27 06:54:24;;;;;;;9.88;2.00;;;23.00;64.40;;;;;;4998909;28;20634;-60
2022/07/27 06:56:50;;;;;;;5.53;1.63;;;23.00;64.40;;;;;;5014371;28;20069;-60
2022/07/27 06:59:15;;;;;;;8.10;1.60;;;22.90;64.50;;;;;;5020492;28;20112;-60
2022/07/27 07:01:42;;;;;;;3.72;1.50;;;22.90;64.70;;;;;;5014572;28;20124;-61
2022/07/27 07:04:08;;;;;;;2.38;1.42;;;22.90;64.70;;;;;;5013111;28;20044;-60
2022/07/27 07:06:33;;;;;;;2.83;1.60;;;22.90;64.80;;;;;;5013672;28;20029;-60
2022/07/27 07:08:59;;;;;;;9.88;2.33;;;22.90;64.80;;;;;;5018490;28;20042;-60
2022/07/27 07:11:24;;;;;;;8.88;2.28;;;22.90;64.80;;;;;;5012316;28;20048;-60
2022/07/27 07:13:50;;;;;;;6.55;1.70;;;22.90;64.80;;;;;;4989234;28;20159;-60
2022/07/27 07:16:16;;;;;;;6.47;1.55;;;22.80;64.80;;;;;;5015715;28;20036;-60
2022/07/27 07:18:41;;;;;;;7.10;1.70;;;22.90;64.80;;;;;;5011774;28;20029;-59
2022/07/27 07:21:07;;;;;;;8.25;1.92;;;22.90;64.70;;;;;;5012242;28;20034;-60
2022/07/27 07:23:32;;;;;;;7.68;2.10;;;22.90;64.70;;;;;;5014694;28;20021;-60
2022/07/27 07:25:58;;;;;;;3.65;1.67;;;22.90;64.80;;;;;;5015298;28;20551;-60
2022/07/27 07:28:23;;;;;;;4.38;1.80;;;22.90;64.90;;;;;;5014693;28;20032;-60
2022/07/27 07:30:49;;;;;;;7.97;1.90;;;22.90;64.90;;;;;;5016398;28;20136;-61
2022/07/27 07:33:14;;;;;;;4.93;1.88;;;22.90;65.00;;;;;;5009290;28;20033;-60
2022/07/27 07:35:40;;;;;;;6.63;1.50;;;22.90;65.00;;;;;;5011003;28;20025;-60
2022/07/27 07:38:05;;;;;;;5.15;1.80;;;22.90;64.90;;;;;;5008355;28;20837;-60
2022/07/27 07:40:31;;;;;;;3.20;1.67;;;22.90;64.80;;;;;;5013625;28;20501;-60
2022/07/27 07:43:01;;;;;;;9.82;2.10;;;22.90;64.70;;;;;;4979664;28;20527;-60
2022/07/27 07:45:27;;;;;;;2.60;1.60;;;23.00;64.90;;;;;;5013865;28;20029;-60
2022/07/27 07:47:53;;;;;;;12.05;2.30;;;23.00;64.80;;;;;;5008189;28;20033;-61
2022/07/27 07:50:19;;;;;;;10.32;2.40;;;23.00;64.80;;;;;;4998152;28;20116;-60
2022/07/27 07:52:46;;;;;;;9.25;1.92;;;23.00;64.80;;;;;;5015790;28;20051;-61
2022/07/27 07:55:11;;;;;;;12.65;2.47;;;23.00;64.80;;;;;;5015478;28;20076;-59
2022/07/27 07:57:37;;;;;;;17.90;3.00;;;23.00;64.80;;;;;;5009724;28;20087;-60
2022/07/27 08:00:04;;;;;;;18.10;3.05;;;23.00;65.10;;;;;;5008917;28;20899;-60
2022/07/27 08:02:29;;;;;;;14.10;2.72;;;23.00;65.10;;;;;;5011907;28;20041;-60
2022/07/27 08:04:55;;;;;;;21.98;3.40;;;23.00;65.40;;;;;;5007075;28;20123;-60
2022/07/27 08:07:20;;;;;;;12.82;2.05;;;23.00;65.30;;;;;;5013659;28;20037;-60
2022/07/27 08:09:46;;;;;;;16.95;2.88;;;23.10;65.30;;;;;;5012524;28;20084;-61
2022/07/27 08:12:11;;;;;;;22.27;3.70;;;23.10;65.60;;;;;;5009888;28;20044;-60
2022/07/27 08:14:37;;;;;;;22.60;3.70;;;23.10;65.40;;;;;;5013930;28;20028;-60
2022/07/27 08:17:02;;;;;;;31.92;4.35;;;23.10;65.30;;;;;;5015246;28;20050;-60
2022/07/27 08:19:28;;;;;;;35.72;4.88;;;23.10;65.40;;;;;;5007052;28;24344;-61
2022/07/27 08:21:53;;;;;;;26.83;3.65;;;23.20;65.40;;;;;;5005699;28;20033;-60
2022/07/27 08:24:19;;;;;;;22.77;3.38;;;23.10;65.10;;;;;;5014849;28;20029;-65
2022/07/27 08:26:44;;;;;;;24.83;3.20;;;23.20;65.10;;;;;;5011157;28;20041;-61
2022/07/27 08:29:10;;;;;;;16.67;3.33;;;23.20;65.30;;;;;;5009074;28;20025;-60
2022/07/27 08:31:35;;;;;;;19.85;3.22;;;23.20;64.90;;;;;;5008655;28;20548;-61
2022/07/27 08:34:01;;;;;;;11.45;2.92;;;23.20;65.00;;;;;;5000737;28;21081;-62
2022/07/27 08:36:27;;;;;;;23.83;3.30;;;23.20;65.00;;;;;;5005144;28;20131;-60
2022/07/27 08:38:52;;;;;;;22.02;4.28;;;23.20;65.20;;;;;;5002768;28;20037;-60
2022/07/27 08:41:18;;;;;;;29.52;4.60;;;23.20;65.20;;;;;;5010310;28;20136;-60
2022/07/27 08:43:44;;;;;;;33.60;4.82;;;23.20;65.10;;;;;;4989017;28;20542;-60
2022/07/27 08:46:10;;;;;;;27.63;4.15;;;23.20;65.70;;;;;;5005776;28;20070;-60
2022/07/27 08:48:37;;;;;;;18.45;3.60;;;23.30;65.20;;;;;;5003296;28;20553;-60
2022/07/27 08:51:03;;;;;;;18.58;3.53;;;23.30;65.00;;;;;;5008790;28;20057;-60
2022/07/27 08:53:30;;;;;;;27.98;3.67;;;23.30;65.00;;;;;;5012882;28;20133;-60
2022/07/27 08:55:56;;;;;;;26.85;4.03;;;23.30;64.90;;;;;;5008247;28;20109;-60
2022/07/27 08:58:21;;;;;;;12.68;3.03;;;23.30;65.00;;;;;;5008681;28;20037;-59
2022/07/27 09:00:48;;;;;;;28.95;4.13;;;23.30;64.70;;;;;;4996748;28;20050;-60
2022/07/27 09:03:14;;;;;;;19.90;4.20;;;23.40;64.60;;;;;;5013066;28;20034;-60
2022/07/27 09:05:42;;;;;;;75.45;9.18;;;23.40;64.70;;;;;;5015825;28;20159;-60
2022/07/27 09:08:12;;;;;;;106.53;12.57;;;23.50;65.00;;;;;;4996179;28;20083;-60
2022/07/27 09:10:37;;;;;;;56.00;7.15;;;23.50;65.00;;;;;;5009033;28;20037;-61
2022/07/27 09:13:36;;;;;;;57.28;7.53;;;23.50;64.90;;;;;;5011512;28;20050;-60
2022/07/27 09:16:04;;;;;;;67.38;9.85;;;23.50;64.80;;;;;;4974140;28;20644;-60
2022/07/27 09:18:30;;;;;;;91.13;11.45;;;23.60;64.90;;;;;;5004319;28;20046;-60
2022/07/27 09:21:15;;;;;;;59.85;7.80;;;23.60;65.10;;;;;;4995576;28;20115;-60
2022/07/27 09:23:50;;;;;;;86.45;8.80;;;23.70;64.90;;;;;;5014003;28;20026;-60
2022/07/27 09:26:17;;;;;;;78.38;7.70;;;23.70;64.60;;;;;;5014920;28;20107;-60
2022/07/27 09:28:43;;;;;;;68.38;7.60;;;23.70;64.40;;;;;;5010983;28;20152;-60
2022/07/27 09:31:10;;;;;;;47.65;6.72;;;23.70;64.50;;;;;;5015367;28;20573;-61
2022/07/27 09:33:43;;;;;;;24.60;4.43;;;23.80;64.80;;;;;;5012111;28;20022;-60
2022/07/27 09:36:08;;;;;;;37.00;5.75;;;23.80;64.70;;;;;;5007927;28;20136;-62
2022/07/27 09:38:34;;;;;;;37.67;5.20;;;23.80;65.40;;;;;;5015390;28;20122;-61
2022/07/27 09:40:59;;;;;;;47.63;5.70;;;23.80;64.50;;;;;;5014260;28;20059;-63
2022/07/27 09:43:25;;;;;;;35.75;4.80;;;23.80;64.10;;;;;;5011603;28;20030;-60
2022/07/27 09:45:52;;;;;;;29.45;5.03;;;23.90;63.90;;;;;;5001613;28;20041;-60
2022/07/27 09:48:19;;;;;;;23.30;4.05;;;23.80;63.80;;;;;;5012421;28;20037;-63
2022/07/27 09:50:45;;;;;;;38.78;5.47;;;23.90;63.80;;;;;;5014389;28;20063;-60
2022/07/27 09:53:15;;;;;;;28.23;5.25;;;23.90;63.80;;;;;;5014032;28;20370;-62
2022/07/27 09:55:41;;;;;;;46.70;5.95;;;23.90;63.80;;;;;;5010148;28;20738;-60
2022/07/27 09:58:07;;;;;;;32.10;4.30;;;23.90;63.70;;;;;;4972300;28;20175;-60
2022/07/27 10:00:33;;;;;;;29.35;4.75;;;24.00;63.60;;;;;;5009104;28;20956;-60
2022/07/27 10:02:58;;;;;;;21.13;3.70;;;24.00;63.20;;;;;;5006045;28;20041;-60
2022/07/27 10:05:24;;;;;;;40.35;5.75;;;24.00;63.40;;;;;;5004616;28;20041;-60
2022/07/27 10:07:51;;;;;;;28.38;4.32;;;24.00;63.40;;;;;;5007283;28;20475;-60
2022/07/27 10:10:16;;;;;;;26.67;4.70;;;24.10;63.40;;;;;;5002602;28;20390;-60
2022/07/27 10:12:43;;;;;;;27.67;4.00;;;24.10;63.40;;;;;;5013255;28;20075;-60
2022/07/27 10:15:10;;;;;;;30.30;3.90;;;24.20;63.20;;;;;;4999068;28;20017;-60
2022/07/27 10:17:36;;;;;;;23.15;3.70;;;24.30;62.90;;;;;;4992402;28;20045;-60
2022/07/27 10:20:05;;;;;;;23.10;3.58;;;24.20;62.80;;;;;;5015380;28;20044;-60
2022/07/27 10:22:49;;;;;;;18.95;2.88;;;24.30;62.80;;;;;;5014221;28;20034;-60
2022/07/27 10:25:15;;;;;;;16.85;3.50;;;24.30;62.40;;;;;;5016617;28;20037;-61
2022/07/27 10:27:40;;;;;;;31.40;4.30;;;24.40;62.40;;;;;;5016188;28;20036;-60
2022/07/27 10:30:06;;;;;;;21.33;3.60;;;24.40;62.30;;;;;;5012513;28;20030;-60
2022/07/27 10:32:32;;;;;;;30.35;4.20;;;24.40;62.40;;;;;;5000324;28;20021;-60
2022/07/27 10:35:01;;;;;;;73.85;7.53;;;24.40;62.60;;;;;;5011112;28;20034;-60
2022/07/27 10:37:28;;;;;;;43.38;6.38;;;24.50;62.80;;;;;;4991437;28;20049;-61
2022/07/27 10:42:49;;;;;;;61.35;8.43;;;24.50;63.30;;;;;;4996780;28;20152;-61
2022/07/27 10:45:17;;;;;;;61.08;7.60;;;24.60;62.80;;;;;;4997882;28;20061;-60
2022/07/27 10:47:44;;;;;;;46.05;6.30;;;24.70;62.30;;;;;;5014828;28;20034;-59
2022/07/27 10:50:18;;;;;;;43.03;6.15;;;24.80;62.20;;;;;;5011760;28;20038;-60
2022/07/27 10:52:48;;;;;;;34.50;5.57;;;24.80;61.70;;;;;;5016631;28;20227;-60
2022/07/27 10:55:32;;;;;;;62.95;7.85;;;24.80;61.50;;;;;;5001021;28;20132;-60
2022/07/27 10:58:13;;;;;;;39.47;7.15;;;24.80;61.50;;;;;;5020026;28;22172;-60
2022/07/27 11:00:48;;;;;;;45.38;6.40;;;24.90;61.90;;;;;;5019786;28;20029;-60
2022/07/27 11:03:33;;;;;;;39.22;6.35;;;24.90;61.90;;;;;;5018884;28;20036;-60
2022/07/27 11:06:06;;;;;;;35.30;4.95;;;25.00;61.30;;;;;;4998956;28;20477;-60
2022/07/27 11:08:33;;;;;;;37.72;5.30;;;25.00;61.50;;;;;;5019624;28;20033;-60
2022/07/27 11:10:59;;;;;;;37.60;5.72;;;25.10;61.30;;;;;;5017154;28;20048;-60
2022/07/27 11:13:25;;;;;;;36.38;4.40;;;25.10;61.40;;;;;;5016513;28;20044;-60
2022/07/27 11:15:58;;;;;;;28.55;4.70;;;25.10;61.20;;;;;;5018724;28;20029;-60
2022/07/27 11:18:27;;;;;;;33.30;4.47;;;25.20;60.80;;;;;;5014863;28;20060;-60
2022/07/27 11:21:11;;;;;;;24.52;4.68;;;25.20;60.40;;;;;;5016675;28;20477;-60
2022/07/27 11:23:36;;;;;;;41.63;5.47;;;25.30;60.60;;;;;;5018169;28;20040;-60
2022/07/27 11:26:02;;;;;;;37.83;5.20;;;25.30;60.60;;;;;;5017297;28;20029;-60
2022/07/27 11:28:31;;;;;;;33.03;5.10;;;25.40;60.30;;;;;;5015350;28;20065;-60
2022/07/27 11:30:57;;;;;;;28.83;4.45;;;25.40;60.30;;;;;;5016010;28;20138;-60
2022/07/27 11:33:23;;;;;;;30.52;4.10;;;25.50;60.40;;;;;;5015084;28;20026;-60
2022/07/27 11:35:56;;;;;;;12.60;3.22;;;25.50;60.30;;;;;;5013079;28;20030;-60
2022/07/27 11:38:21;;;;;;;36.60;5.72;;;25.60;60.40;;;;;;5017828;28;20439;-60
2022/07/27 11:40:49;;;;;;;19.98;3.28;;;25.50;60.10;;;;;;5017685;28;20122;-60
2022/07/27 11:43:34;;;;;;;18.33;3.50;;;25.70;59.80;;;;;;5012525;28;20025;-60
2022/07/27 11:46:13;;;;;;;32.00;5.00;;;25.80;59.90;;;;;;5011733;28;20045;-60
2022/07/27 11:48:55;;;;;;;23.15;3.72;;;25.80;59.80;;;;;;4989876;28;20044;-60
2022/07/27 11:51:21;;;;;;;16.00;3.55;;;25.90;59.80;;;;;;4999921;28;20045;-61
2022/07/27 11:53:46;;;;;;;9.27;2.65;;;25.90;59.60;;;;;;5014343;28;20109;-60
2022/07/27 11:56:19;;;;;;;9.10;2.13;;;25.90;59.40;;;;;;5012679;28;20033;-60
2022/07/27 11:59:07;;;;;;;20.73;3.78;;;26.00;59.40;;;;;;5002205;28;20487;-60
2022/07/27 12:01:36;;;;;;;16.80;3.00;;;26.00;59.60;;;;;;5018035;28;20117;-60
2022/07/27 12:04:13;;;;;;;10.98;1.95;;;26.00;59.60;;;;;;5020688;28;20035;-60
2022/07/27 12:06:40;;;;;;;21.05;3.22;;;26.10;58.90;;;;;;5019139;28;20744;-60
2022/07/27 12:09:06;;;;;;;10.50;2.30;;;26.00;59.10;;;;;;5022065;28;20506;-60
2022/07/27 12:11:45;;;;;;;10.90;1.85;;;26.00;58.60;;;;;;5019122;28;20077;-60
2022/07/27 12:14:12;;;;;;;23.00;4.07;;;26.10;58.30;;;;;;5016131;28;20069;-61
2022/07/27 12:16:37;;;;;;;11.82;2.17;;;26.10;58.60;;;;;;5019873;28;20041;-60
2022/07/27 12:19:03;;;;;;;14.25;3.13;;;26.10;58.40;;;;;;5017203;28;20087;-61
2022/07/27 12:21:28;;;;;;;13.43;2.90;;;26.10;58.50;;;;;;5014598;28;20080;-60
2022/07/27 12:23:54;;;;;;;6.97;2.40;;;26.10;58.50;;;;;;5020493;28;20304;-61
2022/07/27 12:26:20;;;;;;;13.15;2.42;;;26.20;58.40;;;;;;5022415;28;20458;-60
2022/07/27 12:28:45;;;;;;;25.60;3.85;;;26.20;57.90;;;;;;5020399;28;20036;-60
2022/07/27 12:31:17;;;;;;;39.65;3.75;;;26.20;58.00;;;;;;5021541;28;20025;-61
2022/07/27 12:33:43;;;;;;;34.63;3.55;;;26.20;57.80;;;;;;5018495;28;20060;-60
2022/07/27 12:36:08;;;;;;;16.85;2.72;;;26.20;57.80;;;;;;5021516;28;20485;-60
2022/07/27 12:38:45;;;;;;;11.18;2.75;;;26.20;57.60;;;;;;5013677;28;20099;-60
2022/07/27 12:41:21;;;;;;;27.23;3.60;;;26.40;57.80;;;;;;4995864;28;20099;-60
2022/07/27 12:44:02;;;;;;;20.10;2.85;;;26.40;57.50;;;;;;5017186;28;20037;-60
2022/07/27 12:46:27;;;;;;;8.48;2.20;;;26.50;57.10;;;;;;5014910;28;20043;-60